Walla Walla, Washington
Current Conditions -  °F | °C
As of 10:53 AM on Friday 31 Oct 2014 (Local Time) from KALW Reporting Station
Scattered Clouds Scattered Clouds  
Wind Chill: 60°   Ceiling: Unl
Heat Index: 60°   Visibility: 10mi
Dew Point: 49°   Wind: 6mph
Humidity: 67%   Direction: 20°NNE
Pressure: 29.73"   Gusts: NA
Location:  46.07°N, 118.34°W
Report Text: KALW 311753Z 02005KT 10SM SCT100 16/09 A2973 RMK AO2 SLP066 T01560094 10156 20100 50002
Loading
Personal Weather Stations






























Interactive Weather Map
Tropical Storm Tracking
New forecast layout! Learn more

10-Day Weather Forecast

Advertisements
Track Severe Weather on mobile